AirNav   Bose ProFlight Aviation Headset
 
 924 users online  

MO31 Robert Jones Airport
Rogersville, Missouri, USA

GOING TO ROGERSVILLE?


FAA INFORMATION EFFECTIVE 08 NOVEMBER 2018

Location

FAA Identifier: MO31
Lat/Long: 37-03-00.0200N / 093-04-22.2800W
37-03.000333N / 093-04.371333W
37.0500056 / -93.0728556
(estimated)
Elevation: 1353 ft. / 412 m (estimated)
Variation: 04E (1985)
From city: 3 miles SW of ROGERSVILLE, MO
Time zone: UTC -6 (UTC -5 during Daylight Saving Time)
Zip code: 65742

Airport Operations

Airport use: Private use. Permission required prior to landing
Activation date: 11/1988
Control tower: no
ARTCC: KANSAS CITY CENTER
FSS: COLUMBIA FLIGHT SERVICE STATION
Attendance: UNATNDD
Segmented circle: no

Airport Communications

WX ASOS at SGF (19 nm NW): PHONE 417-863-6158

Nearby radio navigation aids

VOR radial/distance  VOR name  Freq  Var
DGDr279/9.5DOGWOOD VORTAC109.4001E
SGFr142/22.2SPRINGFIELD VORTAC116.9004E

Airport Services

Runway Information

Runway 2/20

Dimensions: 1500 x 35 ft. / 457 x 11 m
Surface: turf
RUNWAY 2  RUNWAY 20
Latitude: 37-02.884500N37-03.116000N
Longitude: 093-04.425333W093-04.317167W
Elevation: 1340.0 ft.1353.0 ft.
Traffic pattern: leftleft

Airport Ownership and Management from official FAA records

Ownership: Privately-owned
Owner: SCOTT AND CAROL JONES
316 JONES LANDING
ROGERSVILLE, MO 65742
Phone 417-576-0062
Manager: SCOTT R. JONES
316 JONES LANDING
ROGERSVILLE, MO 65742
Phone 417-576-0062

Instrument Procedures

There are no published instrument procedures at MO31.

Some nearby airports with instrument procedures:

3DW - Downtown Airport (13 nm NW)
KSGF - Springfield-Branson National Airport (19 nm NW)
KAOV - Ava Bill Martin Memorial Airport (19 nm E)
KFWB - Branson West Municipal Airport - Emerson Field (26 nm SW)
KPLK - M Graham Clark Downtown Airport (27 nm S)
 
Loc | Ops | Rwys | IFR | FBO | Links
Com | Nav | Svcs | Stats | Notes

Branson Jet Center
AirBoss

 
Area around MO31 (Robert Jones Airport)
 
Road maps at: MapQuest Bing Google
 
Aerial photo
No photo
 
Sectional chart

 
Airport distance calculator
Flying to Robert Jones Airport? Find the distance to fly.

From to MO31

Sunrise and sunset
Times for 18-Nov-2018
 Local
(UTC-6)
 Zulu
(UTC)
Morning civil twilight06:2712:27
Sunrise06:5512:55
Sunset17:0023:00
Evening civil twilight17:2823:28

Current date and time
Zulu (UTC)  18-Nov-2018 19:19:58
Local (UTC-6)  18-Nov-2018 13:19:58
 
METAR
KSGF 
18nm NW 
181852Z 36009KT 1 1/2SM -RA BR OVC002 01/00 A3021 RMK AO2 RAB37 SLP237 P0000 T00110000
KFWB 
26nm SW 
181855Z AUTO 01006KT 2SM -RA OVC006 03/03 A3019 RMK AO2 P0003
KBBG 
32nm S 
181851Z 35006KT 6SM BR OVC008 03/02 A3020
TAF
KSGF 
18nm NW 
181720Z 1818/1918 02010KT P6SM -DZ OVC005 TEMPO 1818/1821 5SM -SHRA BR OVC003 FM182100 02006KT P6SM OVC007 FM190200 VRB04KT 4SM BR OVC007
NOTAMs
Click for the latest NOTAMs
NOTAMs are issued by the DoD/FAA and will open in a separate window not controlled by AirNav.

 

 
 

Would you like to see your business listed on this page?

 If your business provides an interesting product or service to pilots, flight crews, aircraft, or users of the Robert Jones Airport, you should consider listing it here.  To start the listing process, click on the button below
 
Add a business
 

Other Pages about Robert Jones Airport

Update a link
 
Copyright © AirNav, LLC. All rights reserved. Privacy Policy  Contact